sensor_id;sensor_type;location;lat;lon;timestamp;temperature;humidity
10644;DHT22;5370;50.132;8.626;2022-10-16T00:00:35;16.20;99.90
10644;DHT22;5370;50.132;8.626;2022-10-16T00:03:02;16.20;99.90
10644;DHT22;5370;50.132;8.626;2022-10-16T00:05:28;16.20;99.90
10644;DHT22;5370;50.132;8.626;2022-10-16T00:07:53;16.20;99.90
10644;DHT22;5370;50.132;8.626;2022-10-16T00:10:19;16.30;99.90
10644;DHT22;5370;50.132;8.626;2022-10-16T00:12:45;16.30;99.90
10644;DHT22;5370;50.132;8.626;2022-10-16T00:15:11;16.30;99.90
10644;DHT22;5370;50.132;8.626;2022-10-16T00:17:36;16.40;99.90
10644;DHT22;5370;50.132;8.626;2022-10-16T00:20:02;16.40;99.90
10644;DHT22;5370;50.132;8.626;2022-10-16T00:22:28;16.40;99.90
10644;DHT22;5370;50.132;8.626;2022-10-16T00:24:54;16.50;99.90
10644;DHT22;5370;50.132;8.626;2022-10-16T00:27:19;16.50;99.90
10644;DHT22;5370;50.132;8.626;2022-10-16T00:29:48;16.50;99.90
10644;DHT22;5370;50.132;8.626;2022-10-16T00:32:14;16.60;99.90
10644;DHT22;5370;50.132;8.626;2022-10-16T00:34:39;16.60;99.90
10644;DHT22;5370;50.132;8.626;2022-10-16T00:37:05;16.60;99.90
10644;DHT22;5370;50.132;8.626;2022-10-16T00:39:31;16.60;99.90
10644;DHT22;5370;50.132;8.626;2022-10-16T00:41:56;16.60;99.90
10644;DHT22;5370;50.132;8.626;2022-10-16T00:44:45;16.60;99.90
10644;DHT22;5370;50.132;8.626;2022-10-16T00:47:17;16.70;99.90
10644;DHT22;5370;50.132;8.626;2022-10-16T00:49:43;16.70;99.90
10644;DHT22;5370;50.132;8.626;2022-10-16T00:52:09;16.70;99.90
10644;DHT22;5370;50.132;8.626;2022-10-16T00:54:35;16.70;99.90
10644;DHT22;5370;50.132;8.626;2022-10-16T00:57:04;16.70;99.90
10644;DHT22;5370;50.132;8.626;2022-10-16T00:59:41;16.70;99.90
10644;DHT22;5370;50.132;8.626;2022-10-16T01:02:10;16.80;99.90
10644;DHT22;5370;50.132;8.626;2022-10-16T01:04:48;16.80;99.90
10644;DHT22;5370;50.132;8.626;2022-10-16T01:07:41;16.80;99.90
10644;DHT22;5370;50.132;8.626;2022-10-16T01:10:25;16.80;99.90
10644;DHT22;5370;50.132;8.626;2022-10-16T01:13:10;16.80;99.90
10644;DHT22;5370;50.132;8.626;2022-10-16T01:15:47;16.80;99.90
10644;DHT22;5370;50.132;8.626;2022-10-16T01:18:35;16.80;99.90
10644;DHT22;5370;50.132;8.626;2022-10-16T01:21:12;16.80;99.90
10644;DHT22;5370;50.132;8.626;2022-10-16T01:24:12;16.90;99.90
10644;DHT22;5370;50.132;8.626;2022-10-16T01:27:01;16.90;99.90
10644;DHT22;5370;50.132;8.626;2022-10-16T01:29:51;16.90;99.90
10644;DHT22;5370;50.132;8.626;2022-10-16T01:32:23;16.90;99.90
10644;DHT22;5370;50.132;8.626;2022-10-16T01:35:11;16.90;99.90
10644;DHT22;5370;50.132;8.626;2022-10-16T01:37:48;16.90;99.90
10644;DHT22;5370;50.132;8.626;2022-10-16T01:40:18;16.90;99.90
10644;DHT22;5370;50.132;8.626;2022-10-16T01:42:49;16.90;99.90
10644;DHT22;5370;50.132;8.626;2022-10-16T01:45:17;16.90;99.90
10644;DHT22;5370;50.132;8.626;2022-10-16T01:47:45;16.90;99.90
10644;DHT22;5370;50.132;8.626;2022-10-16T01:50:13;16.90;99.90
10644;DHT22;5370;50.132;8.626;2022-10-16T01:52:43;16.90;99.90
10644;DHT22;5370;50.132;8.626;2022-10-16T01:55:12;17.00;99.90
10644;DHT22;5370;50.132;8.626;2022-10-16T01:57:42;17.00;99.90
10644;DHT22;5370;50.132;8.626;2022-10-16T02:00:12;17.00;99.90
10644;DHT22;5370;50.132;8.626;2022-10-16T02:02:40;17.00;99.90
10644;DHT22;5370;50.132;8.626;2022-10-16T02:07:56;17.00;99.90
10644;DHT22;5370;50.132;8.626;2022-10-16T02:10:22;17.00;99.90
10644;DHT22;5370;50.132;8.626;2022-10-16T02:12:55;17.00;99.90
10644;DHT22;5370;50.132;8.626;2022-10-16T02:15:21;17.00;99.90
10644;DHT22;5370;50.132;8.626;2022-10-16T02:17:47;17.00;99.90
10644;DHT22;5370;50.132;8.626;2022-10-16T02:20:12;16.90;99.90
10644;DHT22;5370;50.132;8.626;2022-10-16T02:22:42;16.90;99.90
10644;DHT22;5370;50.132;8.626;2022-10-16T02:25:24;16.90;99.90
10644;DHT22;5370;50.132;8.626;2022-10-16T02:28:06;16.90;99.90
10644;DHT22;5370;50.132;8.626;2022-10-16T02:30:40;16.90;99.90
10644;DHT22;5370;50.132;8.626;2022-10-16T02:33:09;16.90;99.90
10644;DHT22;5370;50.132;8.626;2022-10-16T02:35:36;16.90;99.90
10644;DHT22;5370;50.132;8.626;2022-10-16T02:38:02;16.90;99.90
10644;DHT22;5370;50.132;8.626;2022-10-16T02:40:28;16.80;99.90
10644;DHT22;5370;50.132;8.626;2022-10-16T02:42:55;16.80;99.90
10644;DHT22;5370;50.132;8.626;2022-10-16T02:45:21;16.80;99.90
10644;DHT22;5370;50.132;8.626;2022-10-16T02:47:48;16.80;99.90
10644;DHT22;5370;50.132;8.626;2022-10-16T02:50:14;16.80;99.90
10644;DHT22;5370;50.132;8.626;2022-10-16T02:52:39;16.80;99.90
10644;DHT22;5370;50.132;8.626;2022-10-16T02:55:05;16.80;99.90
10644;DHT22;5370;50.132;8.626;2022-10-16T02:57:31;16.80;99.90
10644;DHT22;5370;50.132;8.626;2022-10-16T02:59:57;16.70;99.90
10644;DHT22;5370;50.132;8.626;2022-10-16T03:02:22;16.70;99.90
10644;DHT22;5370;50.132;8.626;2022-10-16T03:04:48;16.70;99.90
10644;DHT22;5370;50.132;8.626;2022-10-16T03:07:13;16.70;99.90
10644;DHT22;5370;50.132;8.626;2022-10-16T03:09:39;16.70;99.90
10644;DHT22;5370;50.132;8.626;2022-10-16T03:12:04;16.70;99.90
10644;DHT22;5370;50.132;8.626;2022-10-16T03:14:30;16.70;99.90
10644;DHT22;5370;50.132;8.626;2022-10-16T03:16:55;16.70;99.90
10644;DHT22;5370;50.132;8.626;2022-10-16T03:19:22;16.70;99.90
10644;DHT22;5370;50.132;8.626;2022-10-16T03:21:47;16.70;99.90
10644;DHT22;5370;50.132;8.626;2022-10-16T03:24:13;16.70;99.90
10644;DHT22;5370;50.132;8.626;2022-10-16T03:26:38;16.70;99.90
10644;DHT22;5370;50.132;8.626;2022-10-16T03:29:04;16.70;99.90
10644;DHT22;5370;50.132;8.626;2022-10-16T03:31:30;16.60;99.90
10644;DHT22;5370;50.132;8.626;2022-10-16T03:33:56;16.60;99.90
10644;DHT22;5370;50.132;8.626;2022-10-16T03:36:21;16.60;99.90
10644;DHT22;5370;50.132;8.626;2022-10-16T03:38:47;16.60;99.90
10644;DHT22;5370;50.132;8.626;2022-10-16T03:41:13;16.60;99.90
10644;DHT22;5370;50.132;8.626;2022-10-16T03:43:38;16.60;99.90
10644;DHT22;5370;50.132;8.626;2022-10-16T03:46:04;16.60;99.90
10644;DHT22;5370;50.132;8.626;2022-10-16T03:48:30;16.60;99.90
10644;DHT22;5370;50.132;8.626;2022-10-16T03:50:55;16.60;99.90
10644;DHT22;5370;50.132;8.626;2022-10-16T03:53:21;16.60;99.90
10644;DHT22;5370;50.132;8.626;2022-10-16T03:55:47;16.60;99.90
10644;DHT22;5370;50.132;8.626;2022-10-16T03:58:12;16.60;99.90
10644;DHT22;5370;50.132;8.626;2022-10-16T04:00:47;16.60;99.90
10644;DHT22;5370;50.132;8.626;2022-10-16T04:03:13;16.60;99.90
10644;DHT22;5370;50.132;8.626;2022-10-16T04:05:38;16.60;99.90
10644;DHT22;5370;50.132;8.626;2022-10-16T04:08:04;16.60;99.90
10644;DHT22;5370;50.132;8.626;2022-10-16T04:10:30;16.60;99.90
10644;DHT22;5370;50.132;8.626;2022-10-16T04:12:55;16.60;99.90
10644;DHT22;5370;50.132;8.626;2022-10-16T04:15:22;16.60;99.90
10644;DHT22;5370;50.132;8.626;2022-10-16T04:17:48;16.60;99.90
10644;DHT22;5370;50.132;8.626;2022-10-16T04:20:13;16.60;99.90
10644;DHT22;5370;50.132;8.626;2022-10-16T04:22:39;16.60;99.90
10644;DHT22;5370;50.132;8.626;2022-10-16T04:25:05;16.60;99.90
10644;DHT22;5370;50.132;8.626;2022-10-16T04:27:31;16.60;99.90
10644;DHT22;5370;50.132;8.626;2022-10-16T04:29:57;16.60;99.90
10644;DHT22;5370;50.132;8.626;2022-10-16T04:32:23;16.60;99.90
10644;DHT22;5370;50.132;8.626;2022-10-16T04:34:48;16.60;99.90
10644;DHT22;5370;50.132;8.626;2022-10-16T04:37:14;16.60;99.90
10644;DHT22;5370;50.132;8.626;2022-10-16T04:39:39;16.60;99.90
10644;DHT22;5370;50.132;8.626;2022-10-16T04:42:05;16.60;99.90
10644;DHT22;5370;50.132;8.626;2022-10-16T04:44:30;16.60;99.90
10644;DHT22;5370;50.132;8.626;2022-10-16T04:46:56;16.60;99.90
10644;DHT22;5370;50.132;8.626;2022-10-16T04:49:21;16.60;99.90
10644;DHT22;5370;50.132;8.626;2022-10-16T04:51:47;16.60;99.90
10644;DHT22;5370;50.132;8.626;2022-10-16T04:54:12;16.60;99.90
10644;DHT22;5370;50.132;8.626;2022-10-16T04:56:38;16.60;99.90
10644;DHT22;5370;50.132;8.626;2022-10-16T04:59:12;16.60;99.90
10644;DHT22;5370;50.132;8.626;2022-10-16T05:01:37;16.60;99.90
10644;DHT22;5370;50.132;8.626;2022-10-16T05:04:03;16.60;99.90
10644;DHT22;5370;50.132;8.626;2022-10-16T05:06:29;16.60;99.90
10644;DHT22;5370;50.132;8.626;2022-10-16T05:08:55;16.60;99.90
10644;DHT22;5370;50.132;8.626;2022-10-16T05:11:20;16.60;99.90
10644;DHT22;5370;50.132;8.626;2022-10-16T05:13:46;16.60;99.90
10644;DHT22;5370;50.132;8.626;2022-10-16T05:16:12;16.60;99.90
10644;DHT22;5370;50.132;8.626;2022-10-16T05:18:37;16.70;99.90
10644;DHT22;5370;50.132;8.626;2022-10-16T05:21:03;16.70;99.90
10644;DHT22;5370;50.132;8.626;2022-10-16T05:23:28;16.70;99.90
10644;DHT22;5370;50.132;8.626;2022-10-16T05:25:55;16.60;99.90
10644;DHT22;5370;50.132;8.626;2022-10-16T05:28:24;16.60;99.90
10644;DHT22;5370;50.132;8.626;2022-10-16T05:30:49;16.60;99.90
10644;DHT22;5370;50.132;8.626;2022-10-16T05:33:15;16.60;99.90
10644;DHT22;5370;50.132;8.626;2022-10-16T05:35:41;16.60;99.90
10644;DHT22;5370;50.132;8.626;2022-10-16T05:38:06;16.60;99.90
10644;DHT22;5370;50.132;8.626;2022-10-16T05:40:32;16.60;99.90
10644;DHT22;5370;50.132;8.626;2022-10-16T05:42:57;16.60;99.90
10644;DHT22;5370;50.132;8.626;2022-10-16T05:45:23;16.60;99.90
10644;DHT22;5370;50.132;8.626;2022-10-16T05:47:48;16.60;99.90
10644;DHT22;5370;50.132;8.626;2022-10-16T05:50:14;16.60;99.90
10644;DHT22;5370;50.132;8.626;2022-10-16T05:52:40;16.60;99.90
10644;DHT22;5370;50.132;8.626;2022-10-16T05:55:05;16.60;99.90
10644;DHT22;5370;50.132;8.626;2022-10-16T05:57:31;16.60;99.90
10644;DHT22;5370;50.132;8.626;2022-10-16T05:59:57;16.60;99.90
10644;DHT22;5370;50.132;8.626;2022-10-16T06:02:22;16.60;99.90
10644;DHT22;5370;50.132;8.626;2022-10-16T06:04:48;16.60;99.90
10644;DHT22;5370;50.132;8.626;2022-10-16T06:07:13;16.60;99.90
10644;DHT22;5370;50.132;8.626;2022-10-16T06:09:39;16.70;99.90
10644;DHT22;5370;50.132;8.626;2022-10-16T06:12:04;16.70;99.90
10644;DHT22;5370;50.132;8.626;2022-10-16T06:14:30;16.70;99.90
10644;DHT22;5370;50.132;8.626;2022-10-16T06:16:55;16.70;99.90
10644;DHT22;5370;50.132;8.626;2022-10-16T06:19:21;16.70;99.90
10644;DHT22;5370;50.132;8.626;2022-10-16T06:21:46;16.70;99.90
10644;DHT22;5370;50.132;8.626;2022-10-16T06:24:12;16.70;99.90
10644;DHT22;5370;50.132;8.626;2022-10-16T06:26:37;16.70;99.90
10644;DHT22;5370;50.132;8.626;2022-10-16T06:29:04;16.70;99.90
10644;DHT22;5370;50.132;8.626;2022-10-16T06:31:30;16.70;99.90
10644;DHT22;5370;50.132;8.626;2022-10-16T06:33:58;16.80;99.90
10644;DHT22;5370;50.132;8.626;2022-10-16T06:36:25;16.80;99.90
10644;DHT22;5370;50.132;8.626;2022-10-16T06:38:51;16.80;99.90
10644;DHT22;5370;50.132;8.626;2022-10-16T06:41:21;16.80;99.90
10644;DHT22;5370;50.132;8.626;2022-10-16T06:43:47;16.90;99.90
10644;DHT22;5370;50.132;8.626;2022-10-16T06:46:15;16.90;99.90
10644;DHT22;5370;50.132;8.626;2022-10-16T06:48:41;16.90;99.90
10644;DHT22;5370;50.132;8.626;2022-10-16T06:51:14;17.00;99.90
10644;DHT22;5370;50.132;8.626;2022-10-16T06:53:43;17.00;99.90
10644;DHT22;5370;50.132;8.626;2022-10-16T06:56:20;17.00;99.90
10644;DHT22;5370;50.132;8.626;2022-10-16T06:58:47;17.10;99.90
10644;DHT22;5370;50.132;8.626;2022-10-16T07:01:13;17.10;99.90
10644;DHT22;5370;50.132;8.626;2022-10-16T07:03:40;17.20;99.90
10644;DHT22;5370;50.132;8.626;2022-10-16T07:06:08;17.20;99.90
10644;DHT22;5370;50.132;8.626;2022-10-16T07:08:36;17.20;99.90
10644;DHT22;5370;50.132;8.626;2022-10-16T07:11:04;17.20;99.90
10644;DHT22;5370;50.132;8.626;2022-10-16T07:13:33;17.30;99.90
10644;DHT22;5370;50.132;8.626;2022-10-16T07:16:04;17.30;99.90
10644;DHT22;5370;50.132;8.626;2022-10-16T07:18:30;17.40;99.90
10644;DHT22;5370;50.132;8.626;2022-10-16T07:21:03;17.40;99.90
10644;DHT22;5370;50.132;8.626;2022-10-16T07:23:29;17.50;99.90
10644;DHT22;5370;50.132;8.626;2022-10-16T07:25:55;17.50;99.90
10644;DHT22;5370;50.132;8.626;2022-10-16T07:28:20;17.60;99.90
10644;DHT22;5370;50.132;8.626;2022-10-16T07:30:46;17.70;99.90
10644;DHT22;5370;50.132;8.626;2022-10-16T07:33:11;17.70;99.90
10644;DHT22;5370;50.132;8.626;2022-10-16T07:35:37;17.80;99.90
10644;DHT22;5370;50.132;8.626;2022-10-16T07:38:02;17.80;99.90
10644;DHT22;5370;50.132;8.626;2022-10-16T07:40:28;17.80;99.90
10644;DHT22;5370;50.132;8.626;2022-10-16T07:42:53;17.80;99.90
10644;DHT22;5370;50.132;8.626;2022-10-16T07:45:19;17.80;99.90
10644;DHT22;5370;50.132;8.626;2022-10-16T07:47:44;17.90;99.90
10644;DHT22;5370;50.132;8.626;2022-10-16T07:50:10;17.80;99.90
10644;DHT22;5370;50.132;8.626;2022-10-16T07:52:36;17.80;99.90
10644;DHT22;5370;50.132;8.626;2022-10-16T07:55:01;17.80;99.90
10644;DHT22;5370;50.132;8.626;2022-10-16T07:57:27;17.80;99.90
10644;DHT22;5370;50.132;8.626;2022-10-16T07:59:52;17.90;99.90
10644;DHT22;5370;50.132;8.626;2022-10-16T08:02:18;17.90;99.90
10644;DHT22;5370;50.132;8.626;2022-10-16T08:04:43;17.90;99.90
10644;DHT22;5370;50.132;8.626;2022-10-16T08:07:11;18.00;99.90
10644;DHT22;5370;50.132;8.626;2022-10-16T08:09:37;18.00;99.90
10644;DHT22;5370;50.132;8.626;2022-10-16T08:12:02;18.00;99.90
10644;DHT22;5370;50.132;8.626;2022-10-16T08:14:29;18.00;99.90
10644;DHT22;5370;50.132;8.626;2022-10-16T08:16:54;18.00;99.90
10644;DHT22;5370;50.132;8.626;2022-10-16T08:19:20;18.00;99.90
10644;DHT22;5370;50.132;8.626;2022-10-16T08:21:48;18.00;99.90
10644;DHT22;5370;50.132;8.626;2022-10-16T08:24:14;18.00;99.90
10644;DHT22;5370;50.132;8.626;2022-10-16T08:26:39;18.10;99.90
10644;DHT22;5370;50.132;8.626;2022-10-16T08:29:05;18.10;99.90
10644;DHT22;5370;50.132;8.626;2022-10-16T08:31:30;18.10;99.90
10644;DHT22;5370;50.132;8.626;2022-10-16T08:33:56;18.10;99.90
10644;DHT22;5370;50.132;8.626;2022-10-16T08:36:21;18.20;99.90
10644;DHT22;5370;50.132;8.626;2022-10-16T08:38:48;18.20;99.90
10644;DHT22;5370;50.132;8.626;2022-10-16T08:47:08;18.20;99.90
10644;DHT22;5370;50.132;8.626;2022-10-16T08:49:41;18.20;99.90
10644;DHT22;5370;50.132;8.626;2022-10-16T08:52:12;18.20;99.90
10644;DHT22;5370;50.132;8.626;2022-10-16T08:54:43;18.30;99.90
10644;DHT22;5370;50.132;8.626;2022-10-16T08:59:39;18.20;99.90
10644;DHT22;5370;50.132;8.626;2022-10-16T09:04:52;18.20;99.90
10644;DHT22;5370;50.132;8.626;2022-10-16T09:07:32;18.10;99.90
10644;DHT22;5370;50.132;8.626;2022-10-16T09:10:24;18.10;99.90
10644;DHT22;5370;50.132;8.626;2022-10-16T09:12:55;18.20;99.90
10644;DHT22;5370;50.132;8.626;2022-10-16T09:18:32;18.30;99.90
10644;DHT22;5370;50.132;8.626;2022-10-16T09:21:23;18.40;99.90
10644;DHT22;5370;50.132;8.626;2022-10-16T09:23:50;18.40;99.90
10644;DHT22;5370;50.132;8.626;2022-10-16T09:26:16;18.50;99.90
10644;DHT22;5370;50.132;8.626;2022-10-16T09:28:44;18.50;99.90
10644;DHT22;5370;50.132;8.626;2022-10-16T09:31:15;18.50;99.90
10644;DHT22;5370;50.132;8.626;2022-10-16T09:33:42;18.50;99.90
10644;DHT22;5370;50.132;8.626;2022-10-16T09:36:10;18.50;99.90
10644;DHT22;5370;50.132;8.626;2022-10-16T09:38:36;18.40;99.90
10644;DHT22;5370;50.132;8.626;2022-10-16T09:41:11;18.40;99.90
10644;DHT22;5370;50.132;8.626;2022-10-16T09:43:57;18.40;99.90
10644;DHT22;5370;50.132;8.626;2022-10-16T09:46:27;18.40;99.90
10644;DHT22;5370;50.132;8.626;2022-10-16T09:48:56;18.40;99.90
10644;DHT22;5370;50.132;8.626;2022-10-16T09:54:00;18.30;99.90
10644;DHT22;5370;50.132;8.626;2022-10-16T09:56:34;18.30;99.90
10644;DHT22;5370;50.132;8.626;2022-10-16T09:59:18;18.40;99.90
10644;DHT22;5370;50.132;8.626;2022-10-16T10:01:49;18.40;99.90
10644;DHT22;5370;50.132;8.626;2022-10-16T10:04:17;18.40;99.90
10644;DHT22;5370;50.132;8.626;2022-10-16T10:06:48;18.50;99.90
10644;DHT22;5370;50.132;8.626;2022-10-16T10:09:28;18.50;99.90
10644;DHT22;5370;50.132;8.626;2022-10-16T10:19:30;19.20;99.90
10644;DHT22;5370;50.132;8.626;2022-10-16T10:22:24;19.50;99.90
10644;DHT22;5370;50.132;8.626;2022-10-16T10:30:06;20.60;99.90
10644;DHT22;5370;50.132;8.626;2022-10-16T10:35:20;21.20;98.10
10644;DHT22;5370;50.132;8.626;2022-10-16T10:41:19;21.50;95.70
10644;DHT22;5370;50.132;8.626;2022-10-16T10:44:24;21.60;94.80
10644;DHT22;5370;50.132;8.626;2022-10-16T10:50:05;21.70;93.40
10644;DHT22;5370;50.132;8.626;2022-10-16T11:01:19;22.10;91.40
10644;DHT22;5370;50.132;8.626;2022-10-16T11:06:45;22.20;90.00
10644;DHT22;5370;50.132;8.626;2022-10-16T11:09:17;22.20;88.70
10644;DHT22;5370;50.132;8.626;2022-10-16T11:11:57;22.00;87.90
10644;DHT22;5370;50.132;8.626;2022-10-16T11:14:30;21.90;87.50
10644;DHT22;5370;50.132;8.626;2022-10-16T11:17:06;21.80;87.40
10644;DHT22;5370;50.132;8.626;2022-10-16T11:23:03;21.70;88.00
10644;DHT22;5370;50.132;8.626;2022-10-16T11:25:31;21.60;88.50
10644;DHT22;5370;50.132;8.626;2022-10-16T11:28:20;21.60;88.90
10644;DHT22;5370;50.132;8.626;2022-10-16T11:38:51;21.50;88.80
10644;DHT22;5370;50.132;8.626;2022-10-16T11:44:24;21.50;89.70
10644;DHT22;5370;50.132;8.626;2022-10-16T11:47:05;21.50;90.10
10644;DHT22;5370;50.132;8.626;2022-10-16T11:49:33;21.60;90.70
10644;DHT22;5370;50.132;8.626;2022-10-16T11:52:23;21.80;90.70
10644;DHT22;5370;50.132;8.626;2022-10-16T11:55:02;22.10;90.20
10644;DHT22;5370;50.132;8.626;2022-10-16T11:57:38;22.20;89.30
10644;DHT22;5370;50.132;8.626;2022-10-16T12:00:09;22.20;88.20
10644;DHT22;5370;50.132;8.626;2022-10-16T12:08:14;22.20;88.20
10644;DHT22;5370;50.132;8.626;2022-10-16T12:10:43;22.20;88.30
10644;DHT22;5370;50.132;8.626;2022-10-16T12:13:36;22.30;88.30
10644;DHT22;5370;50.132;8.626;2022-10-16T12:16:06;22.40;88.30
10644;DHT22;5370;50.132;8.626;2022-10-16T12:18:32;22.50;87.60
10644;DHT22;5370;50.132;8.626;2022-10-16T12:20:58;22.60;86.80
10644;DHT22;5370;50.132;8.626;2022-10-16T12:23:24;22.80;86.40
10644;DHT22;5370;50.132;8.626;2022-10-16T12:25:55;23.00;85.20
10644;DHT22;5370;50.132;8.626;2022-10-16T12:28:26;23.20;84.10
10644;DHT22;5370;50.132;8.626;2022-10-16T12:31:04;23.40;82.80
10644;DHT22;5370;50.132;8.626;2022-10-16T12:33:33;23.50;81.60
10644;DHT22;5370;50.132;8.626;2022-10-16T12:36:02;23.60;80.00
10644;DHT22;5370;50.132;8.626;2022-10-16T12:38:49;23.60;79.20
10644;DHT22;5370;50.132;8.626;2022-10-16T12:41:26;23.60;78.50
10644;DHT22;5370;50.132;8.626;2022-10-16T12:43:53;23.50;77.60
10644;DHT22;5370;50.132;8.626;2022-10-16T12:48:45;23.30;77.60
10644;DHT22;5370;50.132;8.626;2022-10-16T12:51:12;23.20;77.60
10644;DHT22;5370;50.132;8.626;2022-10-16T12:53:46;23.30;78.40
10644;DHT22;5370;50.132;8.626;2022-10-16T12:56:27;23.40;78.10
10644;DHT22;5370;50.132;8.626;2022-10-16T12:59:09;23.50;77.80
10644;DHT22;5370;50.132;8.626;2022-10-16T13:04:30;23.50;76.70
10644;DHT22;5370;50.132;8.626;2022-10-16T13:07:15;23.40;76.20
10644;DHT22;5370;50.132;8.626;2022-10-16T13:13:28;23.00;76.40
10644;DHT22;5370;50.132;8.626;2022-10-16T13:15:58;22.80;76.90
10644;DHT22;5370;50.132;8.626;2022-10-16T13:21:18;22.60;78.10
10644;DHT22;5370;50.132;8.626;2022-10-16T13:24:17;22.60;78.70
10644;DHT22;5370;50.132;8.626;2022-10-16T13:27:10;22.60;79.00
10644;DHT22;5370;50.132;8.626;2022-10-16T13:29:39;22.60;78.80
10644;DHT22;5370;50.132;8.626;2022-10-16T13:32:10;22.60;78.70
10644;DHT22;5370;50.132;8.626;2022-10-16T13:34:47;22.60;78.60
10644;DHT22;5370;50.132;8.626;2022-10-16T13:37:25;22.60;78.30
10644;DHT22;5370;50.132;8.626;2022-10-16T13:39:51;22.60;78.10
10644;DHT22;5370;50.132;8.626;2022-10-16T13:42:26;22.60;77.80
10644;DHT22;5370;50.132;8.626;2022-10-16T13:44:54;22.70;77.40
10644;DHT22;5370;50.132;8.626;2022-10-16T13:47:25;22.70;76.80
10644;DHT22;5370;50.132;8.626;2022-10-16T13:50:01;22.70;76.80
10644;DHT22;5370;50.132;8.626;2022-10-16T13:52:27;22.70;76.40
10644;DHT22;5370;50.132;8.626;2022-10-16T13:54:53;22.60;76.00
10644;DHT22;5370;50.132;8.626;2022-10-16T13:57:22;22.50;75.50
10644;DHT22;5370;50.132;8.626;2022-10-16T13:59:48;22.50;75.50
10644;DHT22;5370;50.132;8.626;2022-10-16T14:02:34;22.40;75.60
10644;DHT22;5370;50.132;8.626;2022-10-16T14:05:02;22.40;76.10
10644;DHT22;5370;50.132;8.626;2022-10-16T14:07:30;22.30;76.60
10644;DHT22;5370;50.132;8.626;2022-10-16T14:10:04;22.30;76.60
10644;DHT22;5370;50.132;8.626;2022-10-16T14:12:30;22.30;77.10
10644;DHT22;5370;50.132;8.626;2022-10-16T14:14:58;22.20;77.60
10644;DHT22;5370;50.132;8.626;2022-10-16T14:17:33;22.20;77.50
10644;DHT22;5370;50.132;8.626;2022-10-16T14:20:02;22.10;77.60
10644;DHT22;5370;50.132;8.626;2022-10-16T14:27:56;21.90;77.70
10644;DHT22;5370;50.132;8.626;2022-10-16T14:30:23;21.90;78.40
10644;DHT22;5370;50.132;8.626;2022-10-16T14:32:59;21.80;78.70
10644;DHT22;5370;50.132;8.626;2022-10-16T14:35:25;21.80;79.20
10644;DHT22;5370;50.132;8.626;2022-10-16T14:37:56;21.70;79.50
10644;DHT22;5370;50.132;8.626;2022-10-16T14:40:24;21.70;79.90
10644;DHT22;5370;50.132;8.626;2022-10-16T14:42:50;21.60;80.50
10644;DHT22;5370;50.132;8.626;2022-10-16T14:45:22;21.60;81.00
10644;DHT22;5370;50.132;8.626;2022-10-16T14:48:02;21.70;81.50
10644;DHT22;5370;50.132;8.626;2022-10-16T14:50:29;21.70;81.70
10644;DHT22;5370;50.132;8.626;2022-10-16T14:52:55;21.70;81.20
10644;DHT22;5370;50.132;8.626;2022-10-16T14:55:25;21.80;81.30
10644;DHT22;5370;50.132;8.626;2022-10-16T14:57:50;21.70;80.60
10644;DHT22;5370;50.132;8.626;2022-10-16T15:00:19;21.60;80.20
10644;DHT22;5370;50.132;8.626;2022-10-16T15:02:45;21.60;80.40
10644;DHT22;5370;50.132;8.626;2022-10-16T15:05:16;21.50;80.70
10644;DHT22;5370;50.132;8.626;2022-10-16T15:07:42;21.50;81.00
10644;DHT22;5370;50.132;8.626;2022-10-16T15:10:07;21.50;81.30
10644;DHT22;5370;50.132;8.626;2022-10-16T15:12:33;21.50;81.80
10644;DHT22;5370;50.132;8.626;2022-10-16T15:14:59;21.60;82.30
10644;DHT22;5370;50.132;8.626;2022-10-16T15:17:24;21.60;82.60
10644;DHT22;5370;50.132;8.626;2022-10-16T15:19:50;21.60;82.60
10644;DHT22;5370;50.132;8.626;2022-10-16T15:22:16;21.50;82.80
10644;DHT22;5370;50.132;8.626;2022-10-16T15:24:42;21.50;83.10
10644;DHT22;5370;50.132;8.626;2022-10-16T15:27:08;21.50;83.60
10644;DHT22;5370;50.132;8.626;2022-10-16T15:29:33;21.40;83.70
10644;DHT22;5370;50.132;8.626;2022-10-16T15:31:59;21.40;84.30
10644;DHT22;5370;50.132;8.626;2022-10-16T15:34:25;21.30;84.50
10644;DHT22;5370;50.132;8.626;2022-10-16T15:36:50;21.30;84.70
10644;DHT22;5370;50.132;8.626;2022-10-16T15:39:17;21.20;85.20
10644;DHT22;5370;50.132;8.626;2022-10-16T15:41:45;21.20;85.50
10644;DHT22;5370;50.132;8.626;2022-10-16T15:44:16;21.10;85.70
10644;DHT22;5370;50.132;8.626;2022-10-16T15:46:41;21.10;86.30
10644;DHT22;5370;50.132;8.626;2022-10-16T15:49:08;21.00;86.60
10644;DHT22;5370;50.132;8.626;2022-10-16T15:51:38;21.00;87.10
10644;DHT22;5370;50.132;8.626;2022-10-16T15:54:04;20.90;87.50
10644;DHT22;5370;50.132;8.626;2022-10-16T15:56:29;20.90;87.90
10644;DHT22;5370;50.132;8.626;2022-10-16T15:58:58;20.80;88.40
10644;DHT22;5370;50.132;8.626;2022-10-16T16:01:24;20.80;89.00
10644;DHT22;5370;50.132;8.626;2022-10-16T16:03:53;20.70;89.50
10644;DHT22;5370;50.132;8.626;2022-10-16T16:06:18;20.70;90.00
10644;DHT22;5370;50.132;8.626;2022-10-16T16:08:44;20.60;90.20
10644;DHT22;5370;50.132;8.626;2022-10-16T16:11:11;20.60;90.40
10644;DHT22;5370;50.132;8.626;2022-10-16T16:13:37;20.50;90.70
10644;DHT22;5370;50.132;8.626;2022-10-16T16:16:12;20.50;91.00
10644;DHT22;5370;50.132;8.626;2022-10-16T16:18:38;20.40;91.20
10644;DHT22;5370;50.132;8.626;2022-10-16T16:21:04;20.40;91.50
10644;DHT22;5370;50.132;8.626;2022-10-16T16:23:30;20.30;91.80
10644;DHT22;5370;50.132;8.626;2022-10-16T16:28:32;20.20;92.40
10644;DHT22;5370;50.132;8.626;2022-10-16T16:30:57;20.10;92.60
10644;DHT22;5370;50.132;8.626;2022-10-16T16:33:23;20.10;92.90
10644;DHT22;5370;50.132;8.626;2022-10-16T16:35:49;20.00;93.10
10644;DHT22;5370;50.132;8.626;2022-10-16T16:38:15;19.90;93.40
10644;DHT22;5370;50.132;8.626;2022-10-16T16:40:40;19.90;93.70
10644;DHT22;5370;50.132;8.626;2022-10-16T16:43:06;19.80;93.90
10644;DHT22;5370;50.132;8.626;2022-10-16T16:45:35;19.70;94.10
10644;DHT22;5370;50.132;8.626;2022-10-16T16:48:01;19.70;94.40
10644;DHT22;5370;50.132;8.626;2022-10-16T16:50:26;19.60;94.70
10644;DHT22;5370;50.132;8.626;2022-10-16T16:52:52;19.50;95.00
10644;DHT22;5370;50.132;8.626;2022-10-16T16:55:17;19.50;95.40
10644;DHT22;5370;50.132;8.626;2022-10-16T16:57:43;19.40;95.80
10644;DHT22;5370;50.132;8.626;2022-10-16T17:00:09;19.40;96.10
10644;DHT22;5370;50.132;8.626;2022-10-16T17:02:34;19.30;96.50
10644;DHT22;5370;50.132;8.626;2022-10-16T17:05:00;19.30;96.90
10644;DHT22;5370;50.132;8.626;2022-10-16T17:07:26;19.20;97.30
10644;DHT22;5370;50.132;8.626;2022-10-16T17:09:52;19.20;97.70
10644;DHT22;5370;50.132;8.626;2022-10-16T17:12:18;19.10;98.10
10644;DHT22;5370;50.132;8.626;2022-10-16T17:14:43;19.10;98.50
10644;DHT22;5370;50.132;8.626;2022-10-16T17:17:09;19.00;98.90
10644;DHT22;5370;50.132;8.626;2022-10-16T17:19:34;19.00;99.30
10644;DHT22;5370;50.132;8.626;2022-10-16T17:22:00;19.00;99.80
10644;DHT22;5370;50.132;8.626;2022-10-16T17:24:25;18.90;99.90
10644;DHT22;5370;50.132;8.626;2022-10-16T17:26:51;18.90;99.90
10644;DHT22;5370;50.132;8.626;2022-10-16T17:29:17;18.80;99.90